createdAt,value
2018-06-15T00:00:43.332Z,36.40
2018-06-15T00:01:43.309Z,35.40
2018-06-15T00:02:43.283Z,36.30
2018-06-15T00:03:43.258Z,36.70
2018-06-15T00:04:43.236Z,36.20
2018-06-15T00:05:43.210Z,35.80
2018-06-15T00:06:43.185Z,36.80
2018-06-15T00:07:43.161Z,35.70
2018-06-15T00:08:43.138Z,37.60
2018-06-15T00:09:43.113Z,35.50
2018-06-15T00:10:43.089Z,37.70
2018-06-15T00:11:43.064Z,36.60
2018-06-15T00:12:43.044Z,36.00
2018-06-15T00:13:43.019Z,35.20
2018-06-15T00:14:42.994Z,35.30
2018-06-15T00:15:42.966Z,35.60
2018-06-15T00:16:42.943Z,34.80
2018-06-15T00:17:42.920Z,35.80
2018-06-15T00:18:42.895Z,32.20
2018-06-15T00:19:42.872Z,35.00
2018-06-15T00:20:42.849Z,36.00
2018-06-15T00:21:42.824Z,36.30
2018-06-15T00:22:42.805Z,33.80
2018-06-15T00:23:42.776Z,35.80
2018-06-15T00:24:42.750Z,35.60
2018-06-15T00:25:42.727Z,36.50
2018-06-15T00:26:42.702Z,36.90
2018-06-15T00:27:42.678Z,37.30
2018-06-15T00:28:42.655Z,38.20
2018-06-15T00:29:42.631Z,37.20
2018-06-15T00:30:42.607Z,36.50
2018-06-15T00:31:42.581Z,35.50
2018-06-15T00:32:42.559Z,35.40
2018-06-15T00:33:42.533Z,35.00
2018-06-15T00:34:42.509Z,35.80
2018-06-15T00:35:42.487Z,37.80
2018-06-15T00:36:42.459Z,36.60
2018-06-15T00:37:42.440Z,35.00
2018-06-15T00:38:42.412Z,35.90
2018-06-15T00:39:42.388Z,37.30
2018-06-15T00:40:42.364Z,36.10
2018-06-15T00:41:42.340Z,35.90
2018-06-15T00:42:42.316Z,34.70
2018-06-15T00:43:42.291Z,35.00
2018-06-15T00:44:42.268Z,33.80
2018-06-15T00:45:42.244Z,33.50
2018-06-15T00:46:42.218Z,34.10
2018-06-15T00:47:42.194Z,34.90
2018-06-15T00:48:42.171Z,32.50
2018-06-15T00:49:42.151Z,32.70
2018-06-15T00:50:42.123Z,33.70
2018-06-15T00:51:42.099Z,33.80
2018-06-15T00:52:42.087Z,34.10
2018-06-15T00:53:42.050Z,32.40
2018-06-15T00:54:42.029Z,32.70
2018-06-15T00:55:42.007Z,34.60
2018-06-15T00:56:41.979Z,32.60
2018-06-15T00:57:41.969Z,33.10
2018-06-15T00:58:41.930Z,33.60
2018-06-15T00:59:41.908Z,35.70
2018-06-15T01:00:41.885Z,33.70
2018-06-15T01:01:41.856Z,35.80
2018-06-15T01:02:41.835Z,35.30
2018-06-15T01:03:41.816Z,35.00
2018-06-15T01:04:41.935Z,35.10
2018-06-15T01:05:41.761Z,35.00
2018-06-15T01:06:41.738Z,35.40
2018-06-15T01:07:41.710Z,35.20
2018-06-15T01:08:41.688Z,34.70
2018-06-15T01:09:41.662Z,32.50
2018-06-15T01:10:41.640Z,33.40
2018-06-15T01:11:41.616Z,33.00
2018-06-15T01:12:41.596Z,33.50
2018-06-15T01:13:41.566Z,31.40
2018-06-15T01:14:41.542Z,32.40
2018-06-15T01:15:41.522Z,34.30
2018-06-15T01:16:41.493Z,31.10
2018-06-15T01:17:41.471Z,30.90
2018-06-15T01:18:41.445Z,30.60
2018-06-15T01:19:41.420Z,31.60
2018-06-15T01:20:41.447Z,32.40
2018-06-15T01:21:41.372Z,30.40
2018-06-15T01:22:41.504Z,31.80
2018-06-15T01:23:41.321Z,30.00
2018-06-15T01:24:41.298Z,29.60
2018-06-15T01:25:41.272Z,29.80
2018-06-15T01:26:41.249Z,28.70
2018-06-15T01:27:41.224Z,31.60
2018-06-15T01:28:41.198Z,31.30
2018-06-15T01:29:41.175Z,31.00
2018-06-15T01:30:41.150Z,32.70
2018-06-15T01:31:41.125Z,32.10
2018-06-15T01:32:41.101Z,31.00
2018-06-15T01:33:41.079Z,30.80
2018-06-15T01:34:41.053Z,31.90
2018-06-15T01:35:41.028Z,31.70
2018-06-15T01:36:41.004Z,32.30
2018-06-15T01:37:40.979Z,33.10
2018-06-15T01:38:40.959Z,31.10
2018-06-15T01:39:40.929Z,30.10
2018-06-15T01:40:41.707Z,30.40
2018-06-15T01:41:40.886Z,29.90
2018-06-15T01:42:40.859Z,30.20
2018-06-15T01:43:40.831Z,29.50
2018-06-15T01:44:40.809Z,29.30
2018-06-15T01:45:40.783Z,29.30
2018-06-15T01:46:40.759Z,29.40
2018-06-15T01:47:40.732Z,30.00
2018-06-15T01:48:40.709Z,30.40
2018-06-15T01:49:40.686Z,31.10
2018-06-15T01:50:40.664Z,31.20
2018-06-15T01:51:40.635Z,32.00
2018-06-15T01:52:40.609Z,31.20
2018-06-15T01:53:40.586Z,32.60
2018-06-15T01:54:40.762Z,34.20
2018-06-15T01:55:40.536Z,32.90
2018-06-15T01:56:40.511Z,34.20
2018-06-15T01:57:40.493Z,33.90
2018-06-15T01:58:40.466Z,33.40
2018-06-15T01:59:40.437Z,32.70
2018-06-15T02:00:40.413Z,34.60
2018-06-15T02:01:40.388Z,35.40
2018-06-15T02:02:40.364Z,35.10
2018-06-15T02:03:40.339Z,36.20
2018-06-15T02:04:40.313Z,36.00
2018-06-15T02:05:40.289Z,35.30
2018-06-15T02:06:40.265Z,35.40
2018-06-15T02:07:40.241Z,35.40
2018-06-15T02:08:40.214Z,36.70
2018-06-15T02:09:40.190Z,36.70
2018-06-15T02:10:40.169Z,35.40
2018-06-15T02:11:40.140Z,36.00
2018-06-15T02:12:40.118Z,33.30
2018-06-15T02:13:40.091Z,33.20
2018-06-15T02:14:40.069Z,34.90
2018-06-15T02:15:40.041Z,34.50
2018-06-15T02:16:40.020Z,34.00
2018-06-15T02:17:39.993Z,34.40
2018-06-15T02:18:39.971Z,34.40
2018-06-15T02:19:39.942Z,34.90
2018-06-15T02:20:39.917Z,35.60
2018-06-15T02:21:39.894Z,36.40
2018-06-15T02:22:40.019Z,38.20
2018-06-15T02:23:39.844Z,37.80
2018-06-15T02:24:39.819Z,37.20
2018-06-15T02:25:39.795Z,37.70
2018-06-15T02:26:39.770Z,36.70
2018-06-15T02:27:39.745Z,36.50
2018-06-15T02:28:39.927Z,37.20
2018-06-15T02:29:39.700Z,36.30
2018-06-15T02:30:39.675Z,36.60
2018-06-15T02:31:39.645Z,36.70
2018-06-15T02:32:39.626Z,38.10
2018-06-15T02:33:39.597Z,36.70
2018-06-15T02:34:39.575Z,37.20
2018-06-15T02:35:39.547Z,40.40
2018-06-15T02:36:39.527Z,36.80
2018-06-15T02:37:39.498Z,39.30
2018-06-15T02:38:39.477Z,39.50
2018-06-15T02:39:39.447Z,38.20
2018-06-15T02:40:39.424Z,38.60
2018-06-15T02:41:39.397Z,41.00
2018-06-15T02:42:39.373Z,38.60
2018-06-15T02:43:39.347Z,39.00
2018-06-15T02:44:39.325Z,42.00
2018-06-15T02:45:39.299Z,39.10
2018-06-15T02:46:39.275Z,40.90
2018-06-15T02:47:39.249Z,38.60
2018-06-15T02:48:39.224Z,38.90
2018-06-15T02:49:39.200Z,39.90
2018-06-15T02:50:39.175Z,39.40
2018-06-15T02:51:39.149Z,39.20
2018-06-15T02:52:39.124Z,39.20
2018-06-15T02:53:39.100Z,39.10
2018-06-15T02:54:39.076Z,38.20
2018-06-15T02:55:39.055Z,37.60
2018-06-15T02:56:39.027Z,37.80
2018-06-15T02:57:39.001Z,35.10
2018-06-15T02:58:38.979Z,36.40
2018-06-15T02:59:38.952Z,36.80
2018-06-15T03:00:38.936Z,35.10
2018-06-15T03:01:38.903Z,34.80
2018-06-15T03:02:38.877Z,36.70
2018-06-15T03:03:39.003Z,36.40
2018-06-15T03:04:38.827Z,36.80
2018-06-15T03:05:38.804Z,37.40
2018-06-15T03:06:38.780Z,37.10
2018-06-15T03:07:38.752Z,36.60
2018-06-15T03:08:38.731Z,36.40
2018-06-15T03:09:39.104Z,35.80
2018-06-15T03:10:38.702Z,36.00
2018-06-15T03:11:38.660Z,35.50
2018-06-15T03:12:38.629Z,36.00
2018-06-15T03:13:38.608Z,35.90
2018-06-15T03:14:38.580Z,35.70
2018-06-15T03:15:38.705Z,33.50
2018-06-15T03:16:38.531Z,33.30
2018-06-15T03:17:38.507Z,34.30
2018-06-15T03:18:38.482Z,33.60
2018-06-15T03:19:38.456Z,32.60
2018-06-15T03:20:38.431Z,29.70
2018-06-15T03:21:38.442Z,29.30
2018-06-15T03:22:38.382Z,29.30
2018-06-15T03:23:38.356Z,29.30
2018-06-15T03:24:38.332Z,29.10
2018-06-15T03:25:38.307Z,29.50
2018-06-15T03:26:38.283Z,29.90
2018-06-15T03:27:38.408Z,30.50
2018-06-15T03:28:38.231Z,31.80
2018-06-15T03:29:38.208Z,30.10
2018-06-15T03:30:38.186Z,29.60
2018-06-15T03:31:38.158Z,29.70
2018-06-15T03:32:38.136Z,30.80
2018-06-15T03:33:38.110Z,29.60
2018-06-15T03:34:38.087Z,29.00
2018-06-15T03:35:38.060Z,28.70
2018-06-15T03:36:38.036Z,27.60
2018-06-15T03:37:38.031Z,27.50
2018-06-15T03:38:37.986Z,28.10
2018-06-15T03:39:37.961Z,28.30
2018-06-15T03:40:37.936Z,27.10
2018-06-15T03:41:37.912Z,24.20
2018-06-15T03:42:37.891Z,23.30
2018-06-15T03:43:37.861Z,24.80
2018-06-15T03:44:38.038Z,23.70
2018-06-15T03:45:37.816Z,24.80
2018-06-15T03:46:37.788Z,25.20
2018-06-15T03:47:37.762Z,24.50
2018-06-15T03:48:37.739Z,24.00
2018-06-15T03:49:37.716Z,25.50
2018-06-15T03:50:37.689Z,23.80
2018-06-15T03:51:37.664Z,21.90
2018-06-15T03:52:37.640Z,22.10
2018-06-15T03:53:37.620Z,23.40
2018-06-15T03:54:37.591Z,22.70
2018-06-15T03:55:37.568Z,22.40
2018-06-15T03:56:37.542Z,23.20
2018-06-15T03:57:37.519Z,23.00
2018-06-15T03:58:37.696Z,22.50
2018-06-15T03:59:37.467Z,23.50
2018-06-15T04:00:37.443Z,22.50
2018-06-15T04:01:37.418Z,22.90
2018-06-15T04:02:37.395Z,20.90
2018-06-15T04:03:37.369Z,20.20
2018-06-15T04:04:37.345Z,21.40
2018-06-15T04:05:37.322Z,19.70
2018-06-15T04:06:37.297Z,20.20
2018-06-15T04:07:37.275Z,18.80
2018-06-15T04:08:37.248Z,19.10
2018-06-15T04:09:37.223Z,18.00
2018-06-15T04:10:37.199Z,17.80
2018-06-15T04:11:37.175Z,17.80
2018-06-15T04:12:37.151Z,17.10
2018-06-15T04:13:37.127Z,16.70
2018-06-15T04:14:37.107Z,16.80
2018-06-15T04:15:37.098Z,16.20
2018-06-15T04:16:37.057Z,16.30
2018-06-15T04:17:37.029Z,16.40
2018-06-15T04:18:37.010Z,14.80
2018-06-15T04:19:36.982Z,14.90
2018-06-15T04:20:36.959Z,14.20
2018-06-15T04:21:36.936Z,12.80
2018-06-15T04:22:36.910Z,13.80
2018-06-15T04:23:36.887Z,13.40
2018-06-15T04:24:36.867Z,13.60
2018-06-15T04:25:37.045Z,14.20
2018-06-15T04:26:36.818Z,14.00
2018-06-15T04:27:36.794Z,13.50
2018-06-15T04:28:36.770Z,14.60
2018-06-15T04:29:36.747Z,13.80
2018-06-15T04:30:36.723Z,13.00
2018-06-15T04:31:36.699Z,13.80
2018-06-15T04:32:36.878Z,14.50
2018-06-15T04:33:36.855Z,13.90
2018-06-15T04:34:36.629Z,13.60
2018-06-15T04:35:36.606Z,13.10
2018-06-15T04:36:36.583Z,13.00
2018-06-15T04:37:36.560Z,12.50
2018-06-15T04:38:36.744Z,14.00
2018-06-15T04:39:36.518Z,13.10
2018-06-15T04:40:36.692Z,12.70
2018-06-15T04:41:36.469Z,13.30
2018-06-15T04:42:36.647Z,12.60
2018-06-15T04:43:36.421Z,12.40
2018-06-15T04:44:36.397Z,12.80
2018-06-15T04:45:36.376Z,13.00
2018-06-15T04:46:36.357Z,12.90
2018-06-15T04:47:36.329Z,14.20
2018-06-15T04:48:36.309Z,13.30
2018-06-15T04:49:36.285Z,12.80
2018-06-15T04:50:36.273Z,13.40
2018-06-15T04:51:36.239Z,15.20
2018-06-15T04:52:36.217Z,13.50
2018-06-15T04:53:36.194Z,13.80
2018-06-15T04:54:36.172Z,13.80
2018-06-15T04:55:36.150Z,13.60
2018-06-15T04:56:36.167Z,13.30
2018-06-15T04:57:36.106Z,14.00
2018-06-15T04:58:36.081Z,14.50
2018-06-15T04:59:36.065Z,14.70
2018-06-15T05:00:36.047Z,14.40
2018-06-15T05:01:36.028Z,14.60
2018-06-15T05:02:35.990Z,14.40
2018-06-15T05:03:35.982Z,14.40
2018-06-15T05:04:35.947Z,14.20
2018-06-15T05:05:35.927Z,15.20
2018-06-15T05:06:35.902Z,14.50
2018-06-15T05:07:35.879Z,15.10
2018-06-15T05:08:35.857Z,15.10
2018-06-15T05:09:35.842Z,16.60
2018-06-15T05:10:35.813Z,15.80
2018-06-15T05:11:35.790Z,15.10
2018-06-15T05:12:35.768Z,14.50
2018-06-15T05:13:35.746Z,15.60
2018-06-15T05:14:35.728Z,13.90
2018-06-15T05:15:35.701Z,15.10
2018-06-15T05:16:35.680Z,14.00
2018-06-15T05:17:35.658Z,14.50
2018-06-15T05:18:35.642Z,13.80
2018-06-15T05:19:35.613Z,14.40
2018-06-15T05:20:35.599Z,13.50
2018-06-15T05:21:35.571Z,13.90
2018-06-15T05:22:35.554Z,12.30
2018-06-15T05:23:35.528Z,11.90
2018-06-15T05:24:35.655Z,11.50
2018-06-15T05:25:35.484Z,12.30
2018-06-15T05:26:35.467Z,11.50
2018-06-15T05:27:35.442Z,12.10
2018-06-15T05:28:35.423Z,12.40
2018-06-15T05:29:35.396Z,12.40
2018-06-15T05:30:35.375Z,12.50
2018-06-15T05:31:35.356Z,11.30
2018-06-15T05:32:35.330Z,11.10
2018-06-15T05:33:35.511Z,11.40
2018-06-15T05:34:35.288Z,11.70
2018-06-15T05:35:35.265Z,10.40
2018-06-15T05:36:35.244Z,11.40
2018-06-15T05:37:35.223Z,10.00
2018-06-15T05:38:35.201Z,10.50
2018-06-15T05:39:35.180Z,10.10
2018-06-15T05:40:35.159Z,9.50
2018-06-15T05:41:35.137Z,9.40
2018-06-15T05:42:35.367Z,9.20
2018-06-15T05:43:35.096Z,9.30
2018-06-15T05:44:35.076Z,10.00
2018-06-15T05:45:35.055Z,9.40
2018-06-15T05:46:35.041Z,9.50
2018-06-15T05:47:35.015Z,9.10
2018-06-15T05:48:34.994Z,9.10
2018-06-15T05:49:34.974Z,9.00
2018-06-15T05:50:34.961Z,10.00
2018-06-15T05:51:34.937Z,8.40
2018-06-15T05:52:34.913Z,8.90
2018-06-15T05:53:34.893Z,9.00
2018-06-15T05:54:34.874Z,8.80
2018-06-15T05:55:34.852Z,8.40
2018-06-15T05:56:34.835Z,9.90
2018-06-15T05:57:34.812Z,9.00
2018-06-15T05:58:34.792Z,8.90
2018-06-15T05:59:34.772Z,8.70
2018-06-15T06:00:34.751Z,8.30
2018-06-15T06:01:34.732Z,8.00
2018-06-15T06:02:34.713Z,8.30
2018-06-15T06:03:34.691Z,8.00
2018-06-15T06:04:34.875Z,8.40
2018-06-15T06:05:34.657Z,8.90
2018-06-15T06:06:34.836Z,8.00
2018-06-15T06:07:34.816Z,8.50
2018-06-15T06:08:34.797Z,8.80
2018-06-15T06:09:34.778Z,8.70
2018-06-15T06:10:34.558Z,7.60
2018-06-15T06:11:34.541Z,8.00
2018-06-15T06:12:34.519Z,7.30
2018-06-15T06:13:34.501Z,7.90
2018-06-15T06:14:34.485Z,6.90
2018-06-15T06:15:34.466Z,6.70
2018-06-15T06:16:34.445Z,7.00
2018-06-15T06:17:34.630Z,6.90
2018-06-15T06:18:34.412Z,7.20
2018-06-15T06:19:34.390Z,6.80
2018-06-15T06:20:34.390Z,6.30
2018-06-15T06:21:34.366Z,6.70
2018-06-15T06:22:34.338Z,6.30
2018-06-15T06:23:34.319Z,6.80
2018-06-15T06:24:34.309Z,7.20
2018-06-15T06:25:34.284Z,7.40
2018-06-15T06:26:34.267Z,7.10
2018-06-15T06:27:34.250Z,5.70
2018-06-15T06:28:34.232Z,5.70
2018-06-15T06:29:34.213Z,5.90
2018-06-15T06:30:34.197Z,5.80
2018-06-15T06:31:34.178Z,6.10
2018-06-15T06:32:34.165Z,6.40
2018-06-15T06:33:34.144Z,6.00
2018-06-15T06:34:34.126Z,5.60
2018-06-15T06:35:34.110Z,6.00
2018-06-15T06:36:34.093Z,5.80
2018-06-15T06:37:34.075Z,6.20
2018-06-15T06:38:34.058Z,6.10
2018-06-15T06:39:34.041Z,6.20
2018-06-15T06:40:34.023Z,6.90
2018-06-15T06:41:34.006Z,6.70
2018-06-15T06:42:33.988Z,6.30
2018-06-15T06:43:33.973Z,6.40
2018-06-15T06:44:33.952Z,5.80
2018-06-15T06:45:33.933Z,5.30
2018-06-15T06:46:33.918Z,5.60
2018-06-15T06:47:33.900Z,6.00
2018-06-15T06:48:33.883Z,5.90
2018-06-15T06:49:33.865Z,6.00
2018-06-15T06:50:33.858Z,5.60
2018-06-15T06:51:33.831Z,6.10
2018-06-15T06:52:33.812Z,5.80
2018-06-15T06:53:33.796Z,5.10
2018-06-15T06:54:33.783Z,5.20
2018-06-15T06:55:33.759Z,5.70
2018-06-15T06:56:33.744Z,5.60
2018-06-15T06:57:33.724Z,4.90
2018-06-15T06:58:33.777Z,6.00
2018-06-15T06:59:33.836Z,5.70
2018-06-15T07:00:33.669Z,5.50
2018-06-15T07:01:33.651Z,5.10
2018-06-15T07:02:33.640Z,5.20
2018-06-15T07:03:33.614Z,4.70
2018-06-15T07:04:33.597Z,5.50
2018-06-15T07:05:33.578Z,5.20
2018-06-15T07:06:33.561Z,4.80
2018-06-15T07:07:33.543Z,4.90
2018-06-15T07:08:33.526Z,5.50
2018-06-15T07:09:33.509Z,5.30
2018-06-15T07:10:33.491Z,5.00
2018-06-15T07:11:33.473Z,4.60
2018-06-15T07:12:33.455Z,5.20
2018-06-15T07:13:33.437Z,5.80
2018-06-15T07:14:33.420Z,5.10
2018-06-15T07:15:33.402Z,5.30
2018-06-15T07:16:33.386Z,4.60
2018-06-15T07:17:33.365Z,5.30
2018-06-15T07:18:33.346Z,4.80
2018-06-15T07:19:33.328Z,5.30
2018-06-15T07:20:33.312Z,4.80
2018-06-15T07:21:33.293Z,5.10
2018-06-15T07:22:33.274Z,4.90
2018-06-15T07:23:33.260Z,5.00
2018-06-15T07:24:33.238Z,4.90
2018-06-15T07:25:33.221Z,4.70
2018-06-15T07:26:33.201Z,4.60
2018-06-15T07:27:33.185Z,5.40
2018-06-15T07:28:33.166Z,5.00
2018-06-15T07:29:33.146Z,5.20
2018-06-15T07:30:33.126Z,5.20
2018-06-15T07:31:33.105Z,5.20
2018-06-15T07:32:33.086Z,5.50
2018-06-15T07:33:33.082Z,4.50
2018-06-15T07:34:33.048Z,4.50
2018-06-15T07:35:33.028Z,3.90
2018-06-15T07:36:33.009Z,4.70
2018-06-15T07:37:32.991Z,4.10
2018-06-15T07:38:32.970Z,4.60
2018-06-15T07:39:32.954Z,4.50
2018-06-15T07:40:32.939Z,4.50
2018-06-15T07:41:32.916Z,3.90
2018-06-15T07:42:32.901Z,3.70
2018-06-15T07:43:32.876Z,4.20
2018-06-15T07:44:32.858Z,3.90
2018-06-15T07:45:32.840Z,4.40
2018-06-15T07:46:32.824Z,4.00
2018-06-15T07:47:32.803Z,4.40
2018-06-15T07:48:32.793Z,5.30
2018-06-15T07:49:32.769Z,4.50
2018-06-15T07:50:32.748Z,3.90
2018-06-15T07:51:32.729Z,3.90
2018-06-15T07:52:32.775Z,4.30
2018-06-15T07:53:32.692Z,4.20
2018-06-15T07:54:32.880Z,4.10
2018-06-15T07:55:32.658Z,4.60
2018-06-15T07:56:32.638Z,4.20
2018-06-15T07:57:32.828Z,4.10
2018-06-15T07:58:32.806Z,4.20
2018-06-15T07:59:32.645Z,4.40
2018-06-15T08:00:32.778Z,4.20
2018-06-15T08:01:32.757Z,5.00
2018-06-15T08:02:32.742Z,4.90
2018-06-15T08:03:32.724Z,5.10
2018-06-15T08:04:32.709Z,4.50
2018-06-15T08:05:32.694Z,5.40
2018-06-15T08:06:32.480Z,5.00
2018-06-15T08:07:32.663Z,4.70
2018-06-15T08:08:32.647Z,4.30
2018-06-15T08:09:32.633Z,5.10
2018-06-15T08:10:32.417Z,5.10
2018-06-15T08:12:14.762Z,4.70
2018-06-15T08:13:14.548Z,4.10
2018-06-15T08:14:14.533Z,4.70
2018-06-15T08:15:14.521Z,5.80
2018-06-15T08:16:14.503Z,5.20
2018-06-15T08:17:14.489Z,4.40
2018-06-15T08:18:14.479Z,3.70
2018-06-15T08:19:14.461Z,4.50
2018-06-15T08:20:14.447Z,3.80
2018-06-15T08:21:14.435Z,4.80
2018-06-15T08:22:14.417Z,4.50
2018-06-15T08:23:14.401Z,4.60
2018-06-15T08:24:14.389Z,4.60
2018-06-15T08:25:14.370Z,4.50
2018-06-15T08:26:14.355Z,4.30
2018-06-15T08:27:14.345Z,4.30
2018-06-15T08:28:14.324Z,4.80
2018-06-15T08:29:14.307Z,5.40
2018-06-15T08:30:14.497Z,4.60
2018-06-15T08:31:14.281Z,4.40
2018-06-15T08:32:14.260Z,4.80
2018-06-15T08:33:14.245Z,4.80
2018-06-15T08:34:14.229Z,4.50
2018-06-15T08:35:14.213Z,5.20
2018-06-15T08:36:14.198Z,4.60
2018-06-15T08:37:14.383Z,3.80
2018-06-15T08:38:14.368Z,3.70
2018-06-15T08:39:14.151Z,4.00
2018-06-15T08:40:14.138Z,4.30
2018-06-15T08:41:14.118Z,4.30
2018-06-15T08:42:14.105Z,3.80
2018-06-15T08:43:14.088Z,3.90
2018-06-15T08:44:14.073Z,4.00
2018-06-15T08:45:14.061Z,4.40
2018-06-15T08:46:14.043Z,4.20
2018-06-15T08:47:14.034Z,4.60
2018-06-15T08:48:14.216Z,5.00
2018-06-15T08:49:13.999Z,4.40
2018-06-15T08:50:14.191Z,4.40
2018-06-15T08:51:14.176Z,3.70
2018-06-15T08:52:13.958Z,3.70
2018-06-15T08:53:13.944Z,4.60
2018-06-15T08:54:14.134Z,4.40
2018-06-15T08:55:13.922Z,4.80
2018-06-15T08:56:14.107Z,3.60
2018-06-15T08:57:13.900Z,3.70
2018-06-15T08:58:14.081Z,4.00
2018-06-15T08:59:14.070Z,3.90
2018-06-15T09:00:13.857Z,3.80
2018-06-15T09:01:16.665Z,3.70
2018-06-15T09:02:14.030Z,4.20
2018-06-15T09:03:14.020Z,4.80
2018-06-15T09:04:14.006Z,5.40
2018-06-15T09:05:13.791Z,5.50
2018-06-15T09:06:13.780Z,6.60
2018-06-15T09:07:13.766Z,4.80
2018-06-15T09:08:13.962Z,5.00
2018-06-15T09:09:13.741Z,4.90
2018-06-15T09:10:13.881Z,5.20
2018-06-15T09:11:16.942Z,4.70
2018-06-15T09:12:13.903Z,4.90
2018-06-15T09:13:13.888Z,4.70
2018-06-15T09:14:13.876Z,4.80
2018-06-15T09:15:13.859Z,5.20
2018-06-15T09:16:16.466Z,5.70
2018-06-15T09:17:13.828Z,5.20
2018-06-15T09:18:13.839Z,4.70
2018-06-15T09:19:13.799Z,5.30
2018-06-15T09:20:13.781Z,5.00
2018-06-15T09:21:13.564Z,4.30
2018-06-15T09:23:38.063Z,4.60
2018-06-15T09:24:37.848Z,5.00
2018-06-15T09:25:37.829Z,4.50
2018-06-15T09:26:37.813Z,4.50
2018-06-15T09:27:37.802Z,4.10
2018-06-15T09:28:37.993Z,4.40
2018-06-15T09:29:37.972Z,4.80
2018-06-15T09:30:37.753Z,4.50
2018-06-15T09:31:37.943Z,4.70
2018-06-15T09:32:37.739Z,4.00
2018-06-15T09:33:37.710Z,4.80
2018-06-15T09:34:37.900Z,6.00
2018-06-15T09:35:37.885Z,5.00
2018-06-15T09:36:37.669Z,4.10
2018-06-15T09:37:37.659Z,3.90
2018-06-15T09:38:37.644Z,4.20
2018-06-15T09:39:37.637Z,4.10
2018-06-15T09:40:38.630Z,3.90
2018-06-15T09:41:37.811Z,3.90
2018-06-15T09:42:37.796Z,3.80
2018-06-15T09:43:37.783Z,4.60
2018-06-15T09:44:37.772Z,3.90
2018-06-15T09:46:19.935Z,4.10
2018-06-15T09:47:19.912Z,4.10
2018-06-15T09:48:19.900Z,3.50
2018-06-15T09:49:19.889Z,4.30
2018-06-15T09:50:19.878Z,4.30
2018-06-15T09:51:19.867Z,4.10
2018-06-15T09:52:19.856Z,4.20
2018-06-15T09:53:19.846Z,4.00
2018-06-15T09:54:19.634Z,3.90
2018-06-15T09:55:19.629Z,3.70
2018-06-15T09:56:19.612Z,4.30
2018-06-15T09:57:19.602Z,3.50
2018-06-15T09:58:19.594Z,3.60
2018-06-15T09:59:19.580Z,4.60
2018-06-15T10:00:19.773Z,4.40
2018-06-15T10:01:19.559Z,4.30
2018-06-15T10:02:19.753Z,4.10
2018-06-15T10:03:19.743Z,3.90
2018-06-15T10:04:19.528Z,3.80
2018-06-15T10:05:19.523Z,4.00
2018-06-15T10:06:19.509Z,3.70
2018-06-15T10:07:19.501Z,3.60
2018-06-15T10:08:19.695Z,4.50
2018-06-15T10:09:19.681Z,4.30
2018-06-15T10:10:19.473Z,3.50
2018-06-15T10:11:19.662Z,3.50
2018-06-15T10:12:19.454Z,3.60
2018-06-15T10:13:19.643Z,3.90
2018-06-15T10:14:19.431Z,3.90
2018-06-15T10:15:22.244Z,3.70
2018-06-15T10:16:19.416Z,3.60
2018-06-15T10:17:19.417Z,4.00
2018-06-15T10:18:19.394Z,3.90
2018-06-15T10:19:19.387Z,3.30
2018-06-15T10:20:19.383Z,3.50
2018-06-15T10:21:19.365Z,3.50
2018-06-15T10:22:19.358Z,3.50
2018-06-15T10:23:19.347Z,3.90
2018-06-15T10:24:19.336Z,3.80
2018-06-15T10:25:19.326Z,3.60
2018-06-15T10:26:19.322Z,3.40
2018-06-15T10:27:19.516Z,3.80
2018-06-15T10:28:19.296Z,4.00
2018-06-15T10:29:19.286Z,4.10
2018-06-15T10:30:19.277Z,3.80
2018-06-15T10:31:19.268Z,3.70
2018-06-15T10:32:19.459Z,3.90
2018-06-15T10:33:19.449Z,4.00
2018-06-15T10:34:19.440Z,4.10
2018-06-15T10:35:19.227Z,4.50
2018-06-15T10:36:19.420Z,4.30
2018-06-15T10:37:19.214Z,3.60
2018-06-15T10:38:19.200Z,3.90
2018-06-15T10:39:19.226Z,4.30
2018-06-15T10:40:19.181Z,4.30
2018-06-15T10:42:47.128Z,3.60
2018-06-15T10:43:46.308Z,3.90
2018-06-15T10:44:43.675Z,4.60
2018-06-15T10:45:43.686Z,4.00
2018-06-15T10:46:43.451Z,4.20
2018-06-15T10:47:43.437Z,4.40
2018-06-15T10:48:43.425Z,4.40
2018-06-15T10:49:43.412Z,4.20
2018-06-15T10:50:43.399Z,4.00
2018-06-15T10:51:43.590Z,4.80
2018-06-15T10:52:46.398Z,4.20
2018-06-15T10:53:46.181Z,3.80
2018-06-15T10:54:46.774Z,4.40
2018-06-15T10:55:43.539Z,4.10
2018-06-15T10:56:43.314Z,4.50
2018-06-15T10:57:43.500Z,4.10
2018-06-15T10:58:43.484Z,4.50
2018-06-15T10:59:43.269Z,4.20
2018-06-15T11:00:43.250Z,3.70
2018-06-15T11:01:43.235Z,4.20
2018-06-15T11:02:43.218Z,4.40
2018-06-15T11:03:43.406Z,4.90
2018-06-15T11:04:43.190Z,5.00
2018-06-15T11:05:43.171Z,3.80
2018-06-15T11:06:43.153Z,4.50
2018-06-15T11:07:43.339Z,3.70
2018-06-15T11:08:43.124Z,4.90
2018-06-15T11:09:45.927Z,3.90
2018-06-15T11:10:43.290Z,4.10
2018-06-15T11:11:43.273Z,4.40
2018-06-15T11:12:43.254Z,4.30
2018-06-15T11:13:43.237Z,4.20
2018-06-15T11:14:43.020Z,4.70
2018-06-15T11:15:43.060Z,4.00
2018-06-15T11:16:42.984Z,4.90
2018-06-15T11:17:42.969Z,5.10
2018-06-15T11:18:42.951Z,4.10
2018-06-15T11:19:42.932Z,4.10
2018-06-15T11:20:42.916Z,3.90
2018-06-15T11:21:42.898Z,4.40
2018-06-15T11:22:42.882Z,4.30
2018-06-15T11:23:42.864Z,3.60
2018-06-15T11:24:42.847Z,4.20
2018-06-15T11:25:42.831Z,3.60
2018-06-15T11:26:42.814Z,4.20
2018-06-15T11:27:42.809Z,4.20
2018-06-15T11:28:42.983Z,4.10
2018-06-15T11:29:42.766Z,4.00
2018-06-15T11:30:42.750Z,4.50
2018-06-15T11:31:42.734Z,3.70
2018-06-15T11:32:42.921Z,4.10
2018-06-15T11:33:42.705Z,4.10
2018-06-15T11:34:43.097Z,3.90
2018-06-15T11:35:42.679Z,3.70
2018-06-15T11:36:42.668Z,3.60
2018-06-15T11:37:42.657Z,3.60
2018-06-15T11:38:42.640Z,3.70
2018-06-15T11:39:42.627Z,4.10
2018-06-15T11:40:42.816Z,3.80
2018-06-15T11:41:42.807Z,3.50
2018-06-15T11:42:42.594Z,3.00
2018-06-15T11:43:42.782Z,3.40
2018-06-15T11:44:42.570Z,3.30
2018-06-15T11:45:42.761Z,3.70
2018-06-15T11:46:42.550Z,3.40
2018-06-15T11:47:42.738Z,3.20
2018-06-15T11:48:42.732Z,3.30
2018-06-15T11:49:42.718Z,3.40
2018-06-15T11:50:42.708Z,3.60
2018-06-15T11:51:42.497Z,3.60
2018-06-15T11:52:42.486Z,3.60
2018-06-15T11:54:24.841Z,3.40
2018-06-15T11:55:24.630Z,3.40
2018-06-15T11:56:24.828Z,3.30
2018-06-15T11:57:24.867Z,3.40
2018-06-15T11:58:24.809Z,3.30
2018-06-15T11:59:25.400Z,3.20
2018-06-15T12:00:24.786Z,2.90
2018-06-15T12:01:24.584Z,3.30
2018-06-15T12:02:24.769Z,3.10
2018-06-15T12:03:24.555Z,3.40
2018-06-15T12:04:24.549Z,3.10
2018-06-15T12:05:24.791Z,3.10
2018-06-15T12:06:24.529Z,2.90
2018-06-15T12:07:24.520Z,3.50
2018-06-15T12:08:24.513Z,2.80
2018-06-15T12:09:24.502Z,2.90
2018-06-15T12:10:24.495Z,3.40
2018-06-15T12:11:24.488Z,3.80
2018-06-15T12:12:24.476Z,3.70
2018-06-15T12:13:24.465Z,3.70
2018-06-15T12:14:24.455Z,3.80
2018-06-15T12:15:27.675Z,3.40
2018-06-15T12:16:24.436Z,3.90
2018-06-15T12:17:24.428Z,3.20
2018-06-15T12:18:24.422Z,3.70
2018-06-15T12:19:24.409Z,3.50
2018-06-15T12:20:24.403Z,3.30
2018-06-15T12:21:24.391Z,3.20
2018-06-15T12:22:24.384Z,3.60
2018-06-15T12:23:24.575Z,3.60
2018-06-15T12:24:24.567Z,3.70
2018-06-15T12:25:24.558Z,3.40
2018-06-15T12:26:24.350Z,3.50
2018-06-15T12:27:24.338Z,3.20
2018-06-15T12:28:24.332Z,3.10
2018-06-15T12:29:24.321Z,3.10
2018-06-15T12:30:24.315Z,2.80
2018-06-15T12:31:24.304Z,3.80
2018-06-15T12:32:24.296Z,3.50
2018-06-15T12:33:24.287Z,2.80
2018-06-15T12:34:24.278Z,3.80
2018-06-15T12:35:24.268Z,3.10
2018-06-15T12:36:24.260Z,3.00
2018-06-15T12:37:24.251Z,3.20
2018-06-15T12:38:24.242Z,3.40
2018-06-15T12:39:24.233Z,3.60
2018-06-15T12:40:24.226Z,3.30
2018-06-15T12:41:24.219Z,3.60
2018-06-15T12:42:24.210Z,3.40
2018-06-15T12:43:24.402Z,3.30
2018-06-15T12:44:24.393Z,3.30
2018-06-15T12:45:24.185Z,3.90
2018-06-15T12:46:24.183Z,3.50
2018-06-15T12:47:24.368Z,2.90
2018-06-15T12:48:24.364Z,3.00
2018-06-15T12:49:24.353Z,3.40
2018-06-15T12:50:24.141Z,3.20
2018-06-15T12:51:24.132Z,3.50
2018-06-15T12:52:24.123Z,3.10
2018-06-15T12:53:24.966Z,3.20
2018-06-15T12:54:24.121Z,3.30
2018-06-15T12:55:24.100Z,3.40
2018-06-15T12:56:24.091Z,3.50
2018-06-15T12:57:24.080Z,4.10
2018-06-15T12:58:24.079Z,4.20
2018-06-15T12:59:24.061Z,3.30
2018-06-15T13:00:24.056Z,3.90
2018-06-15T13:01:24.048Z,3.50
2018-06-15T13:02:24.034Z,4.50
2018-06-15T13:03:24.025Z,3.50
2018-06-15T13:04:24.014Z,3.70
2018-06-15T13:05:24.005Z,3.10
2018-06-15T13:06:24.197Z,3.30
2018-06-15T13:07:24.189Z,3.30
2018-06-15T13:08:23.975Z,3.30
2018-06-15T13:09:23.968Z,3.40
2018-06-15T13:10:23.955Z,3.90
2018-06-15T13:11:23.946Z,3.50
2018-06-15T13:12:23.935Z,3.50